createdAt,value
2023-03-29T00:00:05.208Z,100819.53
2023-03-29T00:01:06.556Z,100829.63
2023-03-29T00:01:49.087Z,100831.72
2023-03-29T00:02:30.564Z,100848.56
2023-03-29T00:03:11.310Z,100847.47
2023-03-29T00:03:54.037Z,100813.69
2023-03-29T00:04:35.204Z,100846.88
2023-03-29T00:05:23.176Z,100831.75
2023-03-29T00:06:21.102Z,100840.19
2023-03-29T00:07:16.086Z,100834.53
2023-03-29T00:08:10.088Z,100833.53
2023-03-29T00:09:04.088Z,100843.28
2023-03-29T00:09:58.109Z,100841.53
2023-03-29T00:10:45.103Z,100827.13
2023-03-29T00:11:19.176Z,100804.59
2023-03-29T00:12:10.098Z,100829.06
2023-03-29T00:12:46.173Z,100845.34
2023-03-29T00:13:34.092Z,100846.16
2023-03-29T00:14:08.201Z,100831.53
2023-03-29T00:14:55.085Z,100822.81
2023-03-29T00:15:29.212Z,100823.00
2023-03-29T00:16:09.090Z,100827.66
2023-03-29T00:16:49.200Z,100838.81
2023-03-29T00:17:30.089Z,100838.75
2023-03-29T00:18:10.317Z,100841.91
2023-03-29T00:18:51.075Z,100829.44
2023-03-29T00:19:45.096Z,100832.22
2023-03-29T00:20:39.089Z,100829.00
2023-03-29T00:21:26.092Z,100829.81
2023-03-29T00:22:00.421Z,100831.59
2023-03-29T00:22:53.072Z,100844.84
2023-03-29T00:23:27.246Z,100832.38
2023-03-29T00:24:14.048Z,100836.41
2023-03-29T00:24:49.148Z,100815.94
2023-03-29T00:25:36.070Z,100843.13
2023-03-29T00:26:10.793Z,100834.88
2023-03-29T00:26:52.089Z,100831.25
2023-03-29T00:27:32.178Z,100837.66
2023-03-29T00:28:12.072Z,100795.97
2023-03-29T00:28:52.154Z,100814.38
2023-03-29T00:29:33.050Z,100805.00
2023-03-29T00:30:16.491Z,100836.81
2023-03-29T00:30:59.088Z,100837.53
2023-03-29T00:31:39.264Z,100846.97
2023-03-29T00:32:20.100Z,100811.38
2023-03-29T00:33:00.230Z,100837.50
2023-03-29T00:33:41.062Z,100815.75
2023-03-29T00:34:21.158Z,100839.91
2023-03-29T00:35:03.056Z,100827.78
2023-03-29T00:35:46.272Z,100837.44
2023-03-29T00:36:29.066Z,100836.66
2023-03-29T00:37:10.165Z,100821.31
2023-03-29T00:37:53.169Z,100826.88
2023-03-29T00:38:33.208Z,100839.28
2023-03-29T00:39:14.072Z,100801.63
2023-03-29T00:39:54.151Z,100820.75
2023-03-29T00:40:34.061Z,100834.28
2023-03-29T00:41:16.173Z,100834.97
2023-03-29T00:41:57.067Z,100833.94
2023-03-29T00:42:37.151Z,100821.97
2023-03-29T00:43:19.078Z,100838.84
2023-03-29T00:44:09.120Z,100803.31
2023-03-29T00:45:14.082Z,100827.91
2023-03-29T00:45:54.183Z,100811.16
2023-03-29T00:46:37.091Z,100828.63
2023-03-29T00:47:18.177Z,100830.69
2023-03-29T00:48:05.086Z,100821.56
2023-03-29T00:48:46.075Z,100814.75
2023-03-29T00:49:20.174Z,100832.22
2023-03-29T00:50:37.045Z,100825.97
2023-03-29T00:51:14.450Z,100823.53
2023-03-29T00:52:01.067Z,100783.81
2023-03-29T00:52:37.324Z,100820.88
2023-03-29T00:53:55.057Z,100823.53
2023-03-29T00:54:29.122Z,100821.56
2023-03-29T00:55:30.023Z,100820.78
2023-03-29T00:56:11.877Z,100823.28
2023-03-29T00:56:59.079Z,100818.13
2023-03-29T00:57:34.149Z,100813.84
2023-03-29T00:58:24.047Z,100816.38
2023-03-29T00:59:24.064Z,100816.31
2023-03-29T01:00:21.132Z,100821.03
2023-03-29T01:01:26.109Z,100809.13
2023-03-29T01:02:20.027Z,100814.50
2023-03-29T01:03:21.088Z,100782.34
2023-03-29T01:04:25.113Z,100807.69
2023-03-29T01:05:52.032Z,100808.31
2023-03-29T01:06:50.088Z,100800.56
2023-03-29T01:08:11.045Z,100802.38
2023-03-29T01:09:09.038Z,100771.84
2023-03-29T01:09:52.035Z,100781.69
2023-03-29T01:11:05.107Z,100785.53
2023-03-29T01:11:54.036Z,100777.38
2023-03-29T01:12:39.119Z,100767.44
2023-03-29T01:13:28.032Z,100771.09
2023-03-29T01:14:24.686Z,100781.19
2023-03-29T01:15:13.047Z,100781.19
2023-03-29T01:15:54.296Z,100770.53
2023-03-29T01:16:37.015Z,100792.84
2023-03-29T01:17:17.146Z,100787.50
2023-03-29T01:18:00.046Z,100788.56
2023-03-29T01:18:41.871Z,100780.91
2023-03-29T01:19:26.029Z,100788.75
2023-03-29T01:20:29.039Z,100798.28
2023-03-29T01:21:40.037Z,100789.59
2023-03-29T01:22:54.994Z,100794.94
2023-03-29T01:24:00.063Z,100780.56
2023-03-29T01:25:33.031Z,100791.91
2023-03-29T01:26:47.000Z,100779.72
2023-03-29T01:28:18.006Z,100779.72
2023-03-29T01:29:28.019Z,100790.09
2023-03-29T01:30:28.011Z,100771.78
2023-03-29T01:31:39.080Z,100755.00
2023-03-29T01:32:28.133Z,100784.53
2023-03-29T01:33:30.013Z,100784.72
2023-03-29T01:34:19.127Z,100771.13
2023-03-29T01:35:53.027Z,100780.13
2023-03-29T01:37:07.036Z,100775.59
2023-03-29T01:38:14.999Z,100783.47
2023-03-29T01:39:15.003Z,100777.84
2023-03-29T01:40:09.000Z,100758.34
2023-03-29T01:41:03.361Z,100758.66
2023-03-29T01:42:10.021Z,100783.91
2023-03-29T01:43:42.004Z,100783.06
2023-03-29T01:45:00.006Z,100773.16
2023-03-29T01:46:00.985Z,100771.66
2023-03-29T01:47:00.993Z,100782.88
2023-03-29T01:47:44.002Z,100785.56
2023-03-29T01:48:36.079Z,100755.91
2023-03-29T01:50:04.011Z,100774.88
2023-03-29T01:51:07.103Z,100775.31
2023-03-29T01:51:59.986Z,100778.22
2023-03-29T01:52:54.002Z,100768.75
2023-03-29T01:54:16.976Z,100778.31
2023-03-29T01:55:41.960Z,100770.78
2023-03-29T01:56:40.052Z,100761.25
2023-03-29T01:57:35.988Z,100776.09
2023-03-29T01:58:18.001Z,100778.03
2023-03-29T01:59:04.138Z,100769.69
2023-03-29T01:59:48.979Z,100756.47
2023-03-29T02:00:34.254Z,100762.91
2023-03-29T02:01:16.988Z,100767.66
2023-03-29T02:02:04.859Z,100763.47
2023-03-29T02:02:49.080Z,100772.38
2023-03-29T02:03:40.067Z,100740.81
2023-03-29T02:04:40.970Z,100772.81
2023-03-29T02:05:35.972Z,100754.56
2023-03-29T02:06:32.955Z,100740.13
2023-03-29T02:07:29.956Z,100768.78
2023-03-29T02:08:27.961Z,100754.81
2023-03-29T02:09:10.043Z,100756.47
2023-03-29T02:09:52.540Z,100753.81
2023-03-29T02:10:33.952Z,100772.03
2023-03-29T02:11:14.075Z,100763.84
2023-03-29T02:11:55.956Z,100771.13
2023-03-29T02:12:50.964Z,100771.19
2023-03-29T02:13:45.979Z,100767.44
2023-03-29T02:14:33.967Z,100746.50
2023-03-29T02:15:08.103Z,100746.97
2023-03-29T02:15:56.004Z,100770.09
2023-03-29T02:16:30.044Z,100775.66
2023-03-29T02:17:29.995Z,100773.78
2023-03-29T02:18:04.121Z,100743.66
2023-03-29T02:18:53.932Z,100775.91
2023-03-29T02:19:30.128Z,100782.09
2023-03-29T02:20:29.943Z,100765.91
2023-03-29T02:21:10.094Z,100763.56
2023-03-29T02:22:14.964Z,100781.06
2023-03-29T02:23:34.167Z,100783.63
2023-03-29T02:24:17.958Z,100763.69
2023-03-29T02:25:03.447Z,100765.09
2023-03-29T02:25:43.957Z,100754.00
2023-03-29T02:26:24.591Z,100759.97
2023-03-29T02:27:06.934Z,100746.88
2023-03-29T02:27:47.071Z,100763.56
2023-03-29T02:28:31.948Z,100754.72
2023-03-29T02:29:12.199Z,100756.66
2023-03-29T02:29:53.956Z,100755.88
2023-03-29T02:31:08.013Z,100762.81
2023-03-29T02:32:12.933Z,100777.84
2023-03-29T02:33:16.939Z,100748.06
2023-03-29T02:34:43.926Z,100775.59
2023-03-29T02:35:51.997Z,100757.69
2023-03-29T02:36:37.961Z,100776.44
2023-03-29T02:37:22.044Z,100768.00
2023-03-29T02:38:16.931Z,100768.69
2023-03-29T02:38:51.510Z,100736.50
2023-03-29T02:39:40.915Z,100763.22
2023-03-29T02:40:17.028Z,100739.31
2023-03-29T02:41:04.926Z,100736.78
2023-03-29T02:41:46.963Z,100766.16
2023-03-29T02:42:41.939Z,100758.78
2023-03-29T02:43:37.934Z,100759.81
2023-03-29T02:44:38.921Z,100767.09
2023-03-29T02:45:33.927Z,100730.47
2023-03-29T02:46:28.933Z,100758.13
2023-03-29T02:47:40.975Z,100766.50
2023-03-29T02:48:24.027Z,100737.03
2023-03-29T02:49:04.927Z,100755.94
2023-03-29T02:49:45.030Z,100762.94
2023-03-29T02:50:26.913Z,100725.56
2023-03-29T02:51:12.035Z,100757.69
2023-03-29T02:51:53.927Z,100761.69
2023-03-29T02:52:47.926Z,100739.09
2023-03-29T02:53:51.921Z,100753.63
2023-03-29T02:54:49.920Z,100741.94
2023-03-29T02:55:43.924Z,100750.25
2023-03-29T02:56:37.919Z,100739.16
2023-03-29T02:57:32.906Z,100740.47
2023-03-29T02:58:16.929Z,100723.19
2023-03-29T02:58:57.003Z,100722.16
2023-03-29T02:59:37.898Z,100717.81
2023-03-29T03:00:19.845Z,100756.25
2023-03-29T03:01:01.299Z,100734.53
2023-03-29T03:01:45.068Z,100731.47
2023-03-29T03:02:26.111Z,100754.47
2023-03-29T03:03:06.206Z,100729.28
2023-03-29T03:03:45.996Z,100728.44
2023-03-29T03:04:26.443Z,100729.28
2023-03-29T03:05:06.904Z,100744.88
2023-03-29T03:05:46.984Z,100731.25
2023-03-29T03:06:27.906Z,100750.25
2023-03-29T03:07:09.333Z,100720.94
2023-03-29T03:07:49.903Z,100720.06
2023-03-29T03:08:31.993Z,100733.53
2023-03-29T03:09:12.988Z,100727.19
2023-03-29T03:09:53.992Z,100720.47
2023-03-29T03:10:34.901Z,100751.59
2023-03-29T03:11:15.339Z,100726.88
2023-03-29T03:11:54.906Z,100742.59
2023-03-29T03:12:35.144Z,100745.47
2023-03-29T03:13:15.894Z,100756.75
2023-03-29T03:13:56.318Z,100749.16
2023-03-29T03:14:36.936Z,100745.34
2023-03-29T03:15:18.417Z,100736.09
2023-03-29T03:15:57.934Z,100725.28
2023-03-29T03:16:38.631Z,100719.16
2023-03-29T03:17:18.920Z,100725.22
2023-03-29T03:18:00.679Z,100743.59
2023-03-29T03:18:41.880Z,100741.75
2023-03-29T03:19:22.972Z,100728.50
2023-03-29T03:20:02.905Z,100755.47
2023-03-29T03:20:46.978Z,100718.03
2023-03-29T03:21:27.887Z,100747.50
2023-03-29T03:22:09.870Z,100736.22
2023-03-29T03:22:54.888Z,100718.75
2023-03-29T03:23:36.347Z,100729.59
2023-03-29T03:24:16.868Z,100724.34
2023-03-29T03:24:56.977Z,100729.25
2023-03-29T03:25:37.907Z,100738.72
2023-03-29T03:26:18.999Z,100746.38
2023-03-29T03:26:59.889Z,100727.03
2023-03-29T03:27:39.994Z,100707.78
2023-03-29T03:28:20.895Z,100724.22
2023-03-29T03:29:01.162Z,100749.31
2023-03-29T03:29:42.876Z,100715.44
2023-03-29T03:30:23.974Z,100741.13
2023-03-29T03:31:04.883Z,100723.63
2023-03-29T03:31:45.017Z,100712.28
2023-03-29T03:32:24.851Z,100734.63
2023-03-29T03:33:05.034Z,100730.03
2023-03-29T03:33:44.867Z,100747.66
2023-03-29T03:34:26.275Z,100735.13
2023-03-29T03:35:06.907Z,100725.59
2023-03-29T03:35:47.885Z,100721.91
2023-03-29T03:36:32.892Z,100732.28
2023-03-29T03:37:13.064Z,100737.41
2023-03-29T03:37:52.851Z,100718.81
2023-03-29T03:38:32.947Z,100729.16
2023-03-29T03:39:13.864Z,100707.53
2023-03-29T03:39:53.941Z,100715.09
2023-03-29T03:40:33.872Z,100718.03
2023-03-29T03:41:13.943Z,100703.25
2023-03-29T03:41:53.884Z,100731.34
2023-03-29T03:42:34.950Z,100731.78
2023-03-29T03:43:15.936Z,100712.84
2023-03-29T03:43:56.018Z,100723.25
2023-03-29T03:44:35.830Z,100705.47
2023-03-29T03:45:17.973Z,100715.34
2023-03-29T03:45:58.904Z,100740.09
2023-03-29T03:46:38.995Z,100737.28
2023-03-29T03:47:20.877Z,100716.31
2023-03-29T03:48:01.141Z,100706.34
2023-03-29T03:48:40.846Z,100732.31
2023-03-29T03:49:21.895Z,100733.00
2023-03-29T03:50:01.837Z,100715.53
2023-03-29T03:50:41.942Z,100714.50
2023-03-29T03:51:22.840Z,100713.66
2023-03-29T03:52:02.935Z,100732.63
2023-03-29T03:52:42.840Z,100712.53
2023-03-29T03:53:23.486Z,100737.56
2023-03-29T03:54:03.841Z,100727.16
2023-03-29T03:54:46.539Z,100694.13
2023-03-29T03:55:28.831Z,100714.75
2023-03-29T03:56:09.232Z,100706.06
2023-03-29T03:56:49.899Z,100696.34
2023-03-29T03:57:29.932Z,100693.00
2023-03-29T03:58:10.856Z,100709.31
2023-03-29T03:58:50.929Z,100699.78
2023-03-29T03:59:31.824Z,100737.41
2023-03-29T04:00:20.290Z,100695.44
2023-03-29T04:01:01.026Z,100725.78
2023-03-29T04:01:43.852Z,100699.78
2023-03-29T04:02:23.852Z,100722.50
2023-03-29T04:03:06.109Z,100718.69
2023-03-29T04:03:46.905Z,100715.34
2023-03-29T04:04:27.071Z,100719.56
2023-03-29T04:05:09.824Z,100708.44
2023-03-29T04:05:51.988Z,100725.97
2023-03-29T04:06:31.846Z,100733.81
2023-03-29T04:07:13.120Z,100716.38
2023-03-29T04:07:53.838Z,100699.19
2023-03-29T04:08:33.933Z,100732.09
2023-03-29T04:09:15.907Z,100729.44
2023-03-29T04:09:55.914Z,100705.22
2023-03-29T04:10:35.823Z,100725.16
2023-03-29T04:11:15.937Z,100705.97
2023-03-29T04:11:59.818Z,100704.38
2023-03-29T04:12:39.987Z,100698.25
2023-03-29T04:13:19.841Z,100704.25
2023-03-29T04:14:00.172Z,100712.25
2023-03-29T04:14:39.842Z,100702.31
2023-03-29T04:15:20.653Z,100718.69
2023-03-29T04:16:02.893Z,100718.69
2023-03-29T04:16:42.915Z,100718.56
2023-03-29T04:17:22.855Z,100701.31
2023-03-29T04:18:03.977Z,100717.72
2023-03-29T04:18:43.925Z,100721.09
2023-03-29T04:19:23.951Z,100714.38
2023-03-29T04:20:04.854Z,100731.16
2023-03-29T04:20:44.919Z,100689.50
2023-03-29T04:21:24.805Z,100723.41
2023-03-29T04:22:04.893Z,100709.69
2023-03-29T04:22:45.795Z,100714.56
2023-03-29T04:23:25.890Z,100704.50
2023-03-29T04:24:06.801Z,100699.56
2023-03-29T04:24:46.888Z,100718.50
2023-03-29T04:25:28.851Z,100696.09
2023-03-29T04:26:08.977Z,100727.28
2023-03-29T04:26:49.824Z,100705.91
2023-03-29T04:27:29.957Z,100720.50
2023-03-29T04:28:10.818Z,100727.41
2023-03-29T04:28:51.003Z,100724.56
2023-03-29T04:29:31.833Z,100728.03
2023-03-29T04:30:13.014Z,100720.22
2023-03-29T04:30:54.898Z,100695.28
2023-03-29T04:31:34.977Z,100723.69
2023-03-29T04:32:15.818Z,100692.28
2023-03-29T04:32:56.296Z,100704.88
2023-03-29T04:33:36.835Z,100696.22
2023-03-29T04:34:17.181Z,100725.81
2023-03-29T04:34:57.832Z,100668.50
2023-03-29T04:35:38.216Z,100700.56
2023-03-29T04:36:19.836Z,100703.75
2023-03-29T04:36:59.918Z,100722.97
2023-03-29T04:37:40.844Z,100704.16
2023-03-29T04:38:23.419Z,100713.56
2023-03-29T04:39:07.921Z,100717.75
2023-03-29T04:39:47.898Z,100717.00
2023-03-29T04:40:28.823Z,100691.91
2023-03-29T04:41:09.943Z,100717.84
2023-03-29T04:41:51.861Z,100708.31
2023-03-29T04:42:34.252Z,100712.53
2023-03-29T04:43:13.813Z,100707.47
2023-03-29T04:43:55.976Z,100697.94
2023-03-29T04:44:36.872Z,100703.41
2023-03-29T04:45:18.266Z,100717.94
2023-03-29T04:45:57.864Z,100704.09
2023-03-29T04:46:40.234Z,100708.75
2023-03-29T04:47:19.874Z,100723.41
2023-03-29T04:47:59.954Z,100685.75
2023-03-29T04:48:42.809Z,100692.78
2023-03-29T04:49:36.774Z,100706.50
2023-03-29T04:50:30.782Z,100706.63
2023-03-29T04:51:24.792Z,100713.44
2023-03-29T04:53:15.860Z,100709.50
2023-03-29T04:54:09.787Z,100685.91
2023-03-29T04:55:03.806Z,100689.16
2023-03-29T04:56:01.799Z,100709.84
2023-03-29T04:56:55.836Z,100697.69
2023-03-29T04:57:42.828Z,100702.78
2023-03-29T04:58:17.355Z,100695.84
2023-03-29T04:59:04.828Z,100697.47
2023-03-29T04:59:39.166Z,100694.13
2023-03-29T05:00:33.816Z,100663.19
2023-03-29T05:01:08.065Z,100710.09
2023-03-29T05:01:54.865Z,100701.53
2023-03-29T05:02:32.197Z,100691.75
2023-03-29T05:03:13.815Z,100690.22
2023-03-29T05:03:53.945Z,100685.81
2023-03-29T05:04:39.832Z,100704.81
2023-03-29T05:05:21.216Z,100710.69
2023-03-29T05:06:01.796Z,100701.16
2023-03-29T05:06:41.952Z,100687.28
2023-03-29T05:07:24.790Z,100687.94
2023-03-29T05:08:04.905Z,100716.63
2023-03-29T05:08:46.821Z,100678.41
2023-03-29T05:09:26.904Z,100701.16
2023-03-29T05:10:07.814Z,100683.84
2023-03-29T05:10:53.107Z,100673.69
2023-03-29T05:11:33.805Z,100705.13
2023-03-29T05:12:14.883Z,100667.59
2023-03-29T05:12:59.798Z,100701.66
2023-03-29T05:13:41.095Z,100701.66
2023-03-29T05:14:21.852Z,100698.91
2023-03-29T05:15:02.335Z,100683.47
2023-03-29T05:15:43.778Z,100698.78
2023-03-29T05:16:24.708Z,100668.09
2023-03-29T05:17:05.770Z,100691.59
2023-03-29T05:17:45.894Z,100684.59
2023-03-29T05:18:26.786Z,100697.59
2023-03-29T05:19:09.129Z,100667.25
2023-03-29T05:19:49.801Z,100688.13
2023-03-29T05:20:29.897Z,100673.50
2023-03-29T05:21:10.753Z,100660.16
2023-03-29T05:21:51.137Z,100676.19
2023-03-29T05:22:31.788Z,100676.88
2023-03-29T05:23:12.518Z,100662.84
2023-03-29T05:23:52.794Z,100684.66
2023-03-29T05:24:32.903Z,100675.88
2023-03-29T05:25:14.802Z,100686.13
2023-03-29T05:25:54.884Z,100639.44
2023-03-29T05:26:35.799Z,100666.03
2023-03-29T05:27:17.153Z,100697.25
2023-03-29T05:27:57.767Z,100651.25
2023-03-29T05:28:37.988Z,100664.75
2023-03-29T05:29:18.768Z,100659.75
2023-03-29T05:29:58.885Z,100697.09
2023-03-29T05:30:39.877Z,100676.06
2023-03-29T05:31:19.910Z,100693.53
2023-03-29T05:32:00.877Z,100686.34
2023-03-29T05:32:42.968Z,100658.69
2023-03-29T05:33:22.778Z,100652.50
2023-03-29T05:34:02.858Z,100667.22
2023-03-29T05:34:43.811Z,100643.78
2023-03-29T05:35:25.514Z,100663.56
2023-03-29T05:36:15.870Z,100683.47
2023-03-29T05:36:56.870Z,100658.94
2023-03-29T05:37:39.763Z,100688.66
2023-03-29T05:38:19.895Z,100680.66
2023-03-29T05:39:00.777Z,100684.84
2023-03-29T05:39:40.869Z,100676.34
2023-03-29T05:40:21.727Z,100677.88
2023-03-29T05:41:02.989Z,100676.34
2023-03-29T05:41:43.797Z,100684.66
2023-03-29T05:42:24.744Z,100677.59
2023-03-29T05:43:05.748Z,100678.47
2023-03-29T05:43:46.410Z,100690.53
2023-03-29T05:44:27.761Z,100644.44
2023-03-29T05:45:07.913Z,100669.41
2023-03-29T05:45:47.775Z,100685.53
2023-03-29T05:46:27.899Z,100681.31
2023-03-29T05:47:08.783Z,100667.31
2023-03-29T05:47:48.886Z,100692.63
2023-03-29T05:48:32.725Z,100664.94
2023-03-29T05:49:12.857Z,100676.91
2023-03-29T05:49:53.739Z,100669.97
2023-03-29T05:50:34.567Z,100671.03
2023-03-29T05:51:15.777Z,100663.56
2023-03-29T05:51:58.455Z,100679.97
2023-03-29T05:52:38.778Z,100660.75
2023-03-29T05:53:18.919Z,100683.78
2023-03-29T05:53:59.736Z,100653.41
2023-03-29T05:54:39.857Z,100676.19
2023-03-29T05:55:20.710Z,100683.25
2023-03-29T05:56:01.146Z,100689.91
2023-03-29T05:56:40.765Z,100660.34
2023-03-29T05:57:20.985Z,100660.34
2023-03-29T05:58:00.734Z,100656.09
2023-03-29T05:58:41.168Z,100686.16
2023-03-29T05:59:21.752Z,100672.03
2023-03-29T06:00:02.007Z,100663.09
2023-03-29T06:00:44.730Z,100657.88
2023-03-29T06:01:25.911Z,100661.38
2023-03-29T06:03:20.814Z,100650.69
2023-03-29T06:03:57.364Z,100645.50
2023-03-29T06:04:44.927Z,100668.78
2023-03-29T06:05:19.850Z,100682.69
2023-03-29T06:06:08.770Z,100678.34
2023-03-29T06:06:42.808Z,100656.94
2023-03-29T06:07:30.744Z,100665.69
2023-03-29T06:08:04.802Z,100681.19
2023-03-29T06:08:44.707Z,100681.84
2023-03-29T06:09:25.698Z,100641.59
2023-03-29T06:10:06.726Z,100656.22
2023-03-29T06:10:47.151Z,100651.84
2023-03-29T06:11:28.728Z,100646.50
2023-03-29T06:12:08.825Z,100674.88
2023-03-29T06:12:49.734Z,100655.72
2023-03-29T06:13:29.823Z,100651.38
2023-03-29T06:14:10.712Z,100670.41
2023-03-29T06:14:50.837Z,100680.78
2023-03-29T06:15:31.703Z,100672.44
2023-03-29T06:16:14.013Z,100662.19
2023-03-29T06:16:53.764Z,100648.00
2023-03-29T06:17:34.428Z,100662.63
2023-03-29T06:18:16.820Z,100644.47
2023-03-29T06:18:56.820Z,100649.78
2023-03-29T06:19:36.795Z,100673.09
2023-03-29T06:20:18.397Z,100647.63
2023-03-29T06:20:59.856Z,100671.41
2023-03-29T06:21:41.275Z,100667.66
2023-03-29T06:22:21.682Z,100680.22
2023-03-29T06:23:02.064Z,100654.56
2023-03-29T06:23:42.743Z,100659.13
2023-03-29T06:24:24.989Z,100639.81
2023-03-29T06:25:04.710Z,100659.75
2023-03-29T06:25:45.133Z,100658.28
2023-03-29T06:26:26.678Z,100663.69
2023-03-29T06:27:06.790Z,100662.06
2023-03-29T06:27:47.690Z,100677.63
2023-03-29T06:28:28.775Z,100666.38
2023-03-29T06:29:10.712Z,100661.75
2023-03-29T06:29:50.787Z,100682.22
2023-03-29T06:30:31.738Z,100659.75
2023-03-29T06:31:33.735Z,100653.09
2023-03-29T06:32:27.707Z,100674.25
2023-03-29T06:33:23.668Z,100666.88
2023-03-29T06:34:18.697Z,100670.81
2023-03-29T06:35:12.700Z,100665.88
2023-03-29T06:35:54.741Z,100631.69
2023-03-29T06:36:35.011Z,100669.63
2023-03-29T06:37:14.702Z,100647.09
2023-03-29T06:37:55.987Z,100677.00
2023-03-29T06:38:37.679Z,100678.59
2023-03-29T06:39:17.869Z,100646.97
2023-03-29T06:39:59.695Z,100646.97
2023-03-29T06:40:40.806Z,100659.84
2023-03-29T06:41:21.707Z,100636.59
2023-03-29T06:42:10.099Z,100670.56
2023-03-29T06:43:03.712Z,100642.69
2023-03-29T06:43:43.770Z,100661.28
2023-03-29T06:44:24.687Z,100639.94
2023-03-29T06:45:04.808Z,100663.31
2023-03-29T06:45:45.677Z,100672.25
2023-03-29T06:46:39.784Z,100655.13
2023-03-29T06:47:37.677Z,100662.25
2023-03-29T06:48:31.653Z,100670.81
2023-03-29T06:49:25.674Z,100646.91
2023-03-29T06:50:20.703Z,100668.50
2023-03-29T06:51:14.660Z,100649.97
2023-03-29T06:52:03.711Z,100663.00
2023-03-29T06:52:37.746Z,100676.69
2023-03-29T06:53:24.666Z,100644.41
2023-03-29T06:53:58.788Z,100663.34
2023-03-29T06:54:45.667Z,100672.22
2023-03-29T06:55:21.963Z,100655.94
2023-03-29T06:56:11.685Z,100667.88
2023-03-29T06:56:48.654Z,100638.03
2023-03-29T06:57:30.724Z,100669.44
2023-03-29T06:58:11.052Z,100633.38
2023-03-29T06:58:51.678Z,100644.63
2023-03-29T06:59:33.371Z,100675.44
2023-03-29T07:00:24.674Z,100657.28
2023-03-29T07:01:09.325Z,100658.75
2023-03-29T07:01:51.718Z,100673.16
2023-03-29T07:02:38.713Z,100666.16
2023-03-29T07:03:32.650Z,100670.63
2023-03-29T07:04:26.704Z,100636.94
2023-03-29T07:05:23.652Z,100649.19
2023-03-29T07:06:18.686Z,100656.16
2023-03-29T07:07:13.626Z,100660.00
2023-03-29T07:08:03.664Z,100661.19
2023-03-29T07:08:43.305Z,100635.34
2023-03-29T07:09:32.702Z,100636.44
2023-03-29T07:10:07.332Z,100653.56
2023-03-29T07:10:59.798Z,100649.94
2023-03-29T07:11:36.826Z,100628.09
2023-03-29T07:12:23.664Z,100651.63
2023-03-29T07:12:57.746Z,100635.78
2023-03-29T07:13:39.644Z,100663.41
2023-03-29T07:14:19.745Z,100647.28
2023-03-29T07:14:59.643Z,100658.06
2023-03-29T07:15:39.723Z,100638.72
2023-03-29T07:16:20.782Z,100632.09
2023-03-29T07:17:04.951Z,100660.94
2023-03-29T07:17:46.657Z,100636.41
2023-03-29T07:18:26.814Z,100662.00
2023-03-29T07:19:07.639Z,100648.47
2023-03-29T07:19:48.862Z,100650.03
2023-03-29T07:20:29.872Z,100659.16
2023-03-29T07:21:10.555Z,100664.19
2023-03-29T07:21:51.649Z,100652.97
2023-03-29T07:22:31.746Z,100651.84
2023-03-29T07:23:12.644Z,100633.59
2023-03-29T07:23:52.739Z,100641.47
2023-03-29T07:24:32.715Z,100633.69
2023-03-29T07:25:13.743Z,100668.38
2023-03-29T07:25:54.618Z,100603.94
2023-03-29T07:26:34.992Z,100655.38
2023-03-29T07:27:15.612Z,100646.91
2023-03-29T07:27:56.726Z,100624.44
2023-03-29T07:28:36.635Z,100659.88
2023-03-29T07:29:16.773Z,100668.53
2023-03-29T07:29:57.661Z,100638.47
2023-03-29T07:30:38.746Z,100654.38
2023-03-29T07:31:19.642Z,100643.22
2023-03-29T07:32:00.205Z,100627.47
2023-03-29T07:32:42.838Z,100660.13
2023-03-29T07:33:22.820Z,100639.31
2023-03-29T07:34:03.742Z,100621.03
2023-03-29T07:34:43.707Z,100655.00
2023-03-29T07:35:24.831Z,100630.50
2023-03-29T07:36:04.991Z,100620.31
2023-03-29T07:36:45.634Z,100625.28
2023-03-29T07:37:25.756Z,100660.41
2023-03-29T07:38:06.602Z,100649.84
2023-03-29T07:39:00.619Z,100638.84
2023-03-29T07:39:54.615Z,100656.88
2023-03-29T07:40:42.625Z,100629.16
2023-03-29T07:41:16.779Z,100639.50
2023-03-29T07:42:04.632Z,100642.78
2023-03-29T07:42:38.708Z,100636.81
2023-03-29T07:43:25.634Z,100657.75
2023-03-29T07:44:04.933Z,100640.91
2023-03-29T07:44:52.609Z,100649.72
2023-03-29T07:45:29.704Z,100652.81
2023-03-29T07:46:12.641Z,100647.97
2023-03-29T07:46:52.700Z,100656.53
2023-03-29T07:47:33.649Z,100646.16
2023-03-29T07:48:14.019Z,100630.47
2023-03-29T07:48:54.595Z,100656.09
2023-03-29T07:49:34.727Z,100651.25
2023-03-29T07:50:16.607Z,100648.16
2023-03-29T07:50:56.854Z,100654.72
2023-03-29T07:51:37.596Z,100649.97
2023-03-29T07:52:18.118Z,100626.03
2023-03-29T07:52:59.587Z,100652.09
2023-03-29T07:53:39.862Z,100612.06
2023-03-29T07:54:20.638Z,100623.44
2023-03-29T07:55:02.166Z,100620.16
2023-03-29T07:55:44.021Z,100655.47
2023-03-29T07:56:27.003Z,100620.84
2023-03-29T07:57:07.699Z,100635.50
2023-03-29T07:57:47.696Z,100641.56
2023-03-29T07:58:28.579Z,100625.31
2023-03-29T07:59:09.682Z,100613.72
2023-03-29T07:59:49.575Z,100631.16
2023-03-29T08:00:29.741Z,100638.69
2023-03-29T08:01:12.858Z,100638.06
2023-03-29T08:01:55.325Z,100643.56
2023-03-29T08:02:58.740Z,100652.53
2023-03-29T08:03:52.698Z,100623.69
2023-03-29T08:04:46.588Z,100619.41
2023-03-29T08:05:41.834Z,100628.25
2023-03-29T08:06:36.568Z,100618.38
2023-03-29T08:07:25.787Z,100633.00
2023-03-29T08:08:06.606Z,100643.91
2023-03-29T08:08:46.807Z,100622.94
2023-03-29T08:09:26.579Z,100644.09
2023-03-29T08:10:06.805Z,100653.50
2023-03-29T08:10:48.572Z,100627.84
2023-03-29T08:11:28.942Z,100638.91
2023-03-29T08:12:09.563Z,100645.25
2023-03-29T08:12:50.675Z,100630.94
2023-03-29T08:13:30.620Z,100645.22
2023-03-29T08:14:11.414Z,100622.47
2023-03-29T08:14:52.608Z,100654.38
2023-03-29T08:15:33.694Z,100642.16
2023-03-29T08:16:15.694Z,100641.09
2023-03-29T08:16:56.753Z,100637.28
2023-03-29T08:17:37.669Z,100647.13
2023-03-29T08:18:17.649Z,100628.81
2023-03-29T08:18:57.588Z,100629.19
2023-03-29T08:19:37.633Z,100635.66
2023-03-29T08:20:22.581Z,100633.25
2023-03-29T08:21:02.832Z,100629.25
2023-03-29T08:21:43.558Z,100636.53
2023-03-29T08:22:23.676Z,100602.53
2023-03-29T08:23:03.604Z,100611.31
2023-03-29T08:23:43.730Z,100589.38
2023-03-29T08:24:24.578Z,100598.88
2023-03-29T08:25:04.683Z,100599.09
2023-03-29T08:25:45.559Z,100618.34
2023-03-29T08:26:25.764Z,100604.53
2023-03-29T08:27:05.585Z,100625.81
2023-03-29T08:27:45.698Z,100621.31
2023-03-29T08:28:26.586Z,100598.44
2023-03-29T08:29:08.296Z,100602.94
2023-03-29T08:29:48.640Z,100594.19
2023-03-29T08:30:28.775Z,100616.81
2023-03-29T08:31:08.634Z,100613.63
2023-03-29T08:31:49.737Z,100625.53
2023-03-29T08:32:30.542Z,100621.69
2023-03-29T08:33:10.757Z,100630.03